METAR Data
IDs: Format: Raw Decoded Include TAF

Data at: 0010 UTC 25 Apr 2019

METAR for:KVTI (Vinton/Veterans Mem, IA, US)
Text:KVTI 242355Z AUTO 22005KT 10SM CLR 18/10 A2982 RMK AO2 T01770096 10202 20142
Temperature: 17.7°C ( 64°F)
Dewpoint: 9.6°C ( 49°F) [RH = 59%]
Pressure (altimeter):29.82 inches Hg (1009.9 mb)
Winds:from the SW (220 degrees) at 6 MPH (5 knots; 2.6 m/s)
Visibility:10 or more sm (16+ km)
Ceiling:at least 12,000 feet AGL
Clouds:sky clear below 12,000 feet AGL
QC Flag:automated observation with no human augmentation